Time;durP1;ratioP1;P1;durP2;ratioP2;P2;SDS_P1;SDS_P2;PMS_P1;PMS_P2;Temp;Humidity;BMP_temperature;BMP_pressure;BME280_temperature;BME280_humidity;BME280_pressure;Samples;Min_cycle;Max_cycle;Signal;HPM_P1;HPM_P2
2023/08/19 00:01:36;;;;;;;4.28;3.88;;;22.90;99.90;;;;;;5020946;28;20204;-70
2023/08/19 00:04:04;;;;;;;4.38;4.00;;;22.90;99.90;;;;;;5019748;28;20227;-73
2023/08/19 00:06:38;;;;;;;4.40;4.03;;;22.90;99.90;;;;;;5023304;28;20195;-72
2023/08/19 00:09:08;;;;;;;4.45;3.83;;;22.90;99.90;;;;;;5019703;28;20204;-71
2023/08/19 00:11:36;;;;;;;3.80;3.53;;;22.80;99.90;;;;;;5021953;28;21573;-71
2023/08/19 00:14:05;;;;;;;4.05;3.70;;;22.80;99.90;;;;;;5019376;28;20861;-71
2023/08/19 00:16:32;;;;;;;4.25;3.88;;;22.80;99.90;;;;;;5018756;28;20203;-71
2023/08/19 00:19:00;;;;;;;4.25;3.95;;;22.80;99.90;;;;;;5000956;28;20685;-71
2023/08/19 00:21:27;;;;;;;4.28;3.97;;;22.80;99.90;;;;;;5005858;28;20211;-72
2023/08/19 00:23:57;;;;;;;4.32;4.03;;;22.80;99.90;;;;;;5025127;28;20280;-71
2023/08/19 00:26:25;;;;;;;4.35;4.05;;;22.80;99.90;;;;;;5024163;28;20218;-72
2023/08/19 00:28:52;;;;;;;4.78;4.38;;;22.80;99.90;;;;;;5023290;28;20226;-73
2023/08/19 00:31:19;;;;;;;4.57;4.18;;;22.80;99.90;;;;;;5005975;28;20283;-73
2023/08/19 00:33:46;;;;;;;4.40;4.10;;;22.70;99.90;;;;;;5019154;28;20211;-71
2023/08/19 00:36:13;;;;;;;4.63;4.22;;;22.70;99.90;;;;;;5021214;28;20218;-71
2023/08/19 00:38:40;;;;;;;4.53;4.18;;;22.60;99.90;;;;;;5024471;28;20705;-71
2023/08/19 00:41:09;;;;;;;4.38;4.05;;;22.70;99.90;;;;;;5023240;28;20203;-72
2023/08/19 00:43:37;;;;;;;4.68;4.30;;;22.70;99.90;;;;;;5022360;28;20258;-73
2023/08/19 00:46:07;;;;;;;4.78;4.38;;;22.60;99.90;;;;;;5004255;28;20257;-71
2023/08/19 00:48:35;;;;;;;4.85;4.50;;;22.60;99.90;;;;;;5022951;28;20288;-71
2023/08/19 00:51:05;;;;;;;4.40;4.10;;;22.60;99.90;;;;;;5009399;28;20284;-72
2023/08/19 00:53:34;;;;;;;4.70;4.30;;;22.60;99.90;;;;;;5024431;28;20215;-71
2023/08/19 00:56:01;;;;;;;4.55;4.25;;;22.60;99.90;;;;;;5020964;28;20202;-72
2023/08/19 00:58:30;;;;;;;4.70;4.30;;;22.50;99.90;;;;;;5021730;28;20511;-72
2023/08/19 01:00:57;;;;;;;4.70;4.30;;;22.50;99.90;;;;;;5018462;28;20235;-72
2023/08/19 01:03:25;;;;;;;4.65;4.30;;;22.40;99.90;;;;;;5004837;28;20652;-72
2023/08/19 01:06:03;;;;;;;4.88;4.45;;;22.40;99.90;;;;;;5020047;28;20749;-74
2023/08/19 01:08:45;;;;;;;4.85;4.45;;;22.40;99.90;;;;;;5020531;28;20208;-72
2023/08/19 01:11:21;;;;;;;5.20;4.30;;;22.30;99.90;;;;;;5019194;28;20784;-73
2023/08/19 01:13:57;;;;;;;4.60;4.20;;;22.30;99.90;;;;;;5022398;28;20219;-72
2023/08/19 01:16:27;;;;;;;4.53;4.22;;;22.30;99.90;;;;;;5021463;28;20255;-72
2023/08/19 01:18:56;;;;;;;4.35;4.05;;;22.30;99.90;;;;;;5020372;28;20261;-73
2023/08/19 01:21:24;;;;;;;4.18;3.85;;;22.20;99.90;;;;;;5023481;28;20199;-72
2023/08/19 01:23:55;;;;;;;4.57;4.15;;;22.20;99.90;;;;;;5020815;28;20219;-72
2023/08/19 01:26:24;;;;;;;4.68;4.38;;;22.20;99.90;;;;;;5021497;28;20199;-72
2023/08/19 01:28:51;;;;;;;4.32;4.03;;;22.10;99.90;;;;;;5021742;28;20619;-73
2023/08/19 01:31:18;;;;;;;4.43;4.13;;;22.20;99.90;;;;;;5022109;28;20249;-72
2023/08/19 01:33:45;;;;;;;5.13;4.70;;;22.20;99.90;;;;;;5004658;28;20736;-72
2023/08/19 01:36:19;;;;;;;4.68;4.30;;;22.30;99.90;;;;;;5021410;28;20200;-72
2023/08/19 01:38:52;;;;;;;4.78;4.38;;;22.40;99.90;;;;;;5020850;28;20204;-73
2023/08/19 01:41:22;;;;;;;5.20;4.70;;;22.40;99.90;;;;;;5004402;28;20203;-72
2023/08/19 01:43:52;;;;;;;4.80;4.40;;;22.30;99.90;;;;;;5022019;28;20935;-71
2023/08/19 01:46:19;;;;;;;5.75;5.25;;;22.30;99.90;;;;;;5022947;28;20212;-71
2023/08/19 01:48:46;;;;;;;4.00;3.70;;;22.20;99.90;;;;;;5022823;28;20199;-72
2023/08/19 01:51:13;;;;;;;4.47;4.18;;;22.20;99.90;;;;;;5022443;28;20253;-71
2023/08/19 01:53:40;;;;;;;4.28;3.97;;;22.20;99.90;;;;;;5022295;28;20281;-71
2023/08/19 01:56:07;;;;;;;4.32;4.03;;;22.10;99.90;;;;;;5021540;28;20196;-72
2023/08/19 01:58:34;;;;;;;4.78;4.47;;;22.10;99.90;;;;;;5030322;28;20266;-73
2023/08/19 02:01:03;;;;;;;4.00;3.75;;;22.00;99.90;;;;;;5022189;28;20211;-71
2023/08/19 02:03:30;;;;;;;4.15;3.85;;;22.00;99.90;;;;;;5021712;28;20200;-72
2023/08/19 02:05:57;;;;;;;3.85;3.55;;;22.00;99.90;;;;;;5020550;28;20204;-71
2023/08/19 02:08:24;;;;;;;3.70;3.40;;;22.00;99.90;;;;;;5021145;28;20250;-72
2023/08/19 02:10:51;;;;;;;4.65;4.10;;;22.00;99.90;;;;;;5019854;28;20200;-72
2023/08/19 02:13:18;;;;;;;4.18;3.83;;;22.00;99.90;;;;;;5023771;28;20255;-71
2023/08/19 02:15:45;;;;;;;4.20;3.90;;;22.00;99.90;;;;;;5025850;28;20301;-71
2023/08/19 02:18:13;;;;;;;4.15;3.75;;;22.00;99.90;;;;;;5026710;28;20195;-71
2023/08/19 02:20:40;;;;;;;4.13;3.72;;;22.00;99.90;;;;;;5025769;28;20211;-71
2023/08/19 02:23:08;;;;;;;4.07;3.78;;;22.00;99.90;;;;;;5025505;28;20195;-71
2023/08/19 02:25:34;;;;;;;4.22;3.92;;;21.90;99.90;;;;;;5024258;28;20323;-73
2023/08/19 02:28:01;;;;;;;3.65;3.35;;;21.90;99.90;;;;;;5023629;28;20266;-71
2023/08/19 02:30:28;;;;;;;5.18;3.95;;;21.80;99.90;;;;;;5025274;28;20263;-70
2023/08/19 02:32:55;;;;;;;4.03;3.72;;;21.80;99.90;;;;;;5026582;28;20235;-71
2023/08/19 02:35:24;;;;;;;3.83;3.53;;;21.80;99.90;;;;;;5024969;28;20684;-71
2023/08/19 02:37:51;;;;;;;4.10;3.80;;;21.80;99.90;;;;;;5008498;28;20298;-71
2023/08/19 02:40:18;;;;;;;4.15;3.83;;;21.70;99.90;;;;;;4992428;28;20211;-73
2023/08/19 02:42:45;;;;;;;4.20;3.80;;;21.70;99.90;;;;;;5024530;28;20281;-71
2023/08/19 02:45:12;;;;;;;4.10;3.78;;;21.80;99.90;;;;;;5025783;28;20705;-71
2023/08/19 02:47:39;;;;;;;5.00;4.50;;;21.80;99.90;;;;;;5026530;28;20227;-71
2023/08/19 02:50:07;;;;;;;3.90;3.60;;;21.90;99.90;;;;;;5025224;28;20261;-71
2023/08/19 02:52:36;;;;;;;4.07;3.78;;;21.80;99.90;;;;;;5025472;28;20774;-71
2023/08/19 02:55:03;;;;;;;6.07;3.83;;;21.70;99.90;;;;;;5025044;28;20231;-71
2023/08/19 02:57:30;;;;;;;3.65;3.35;;;21.60;99.90;;;;;;5025873;28;20207;-72
2023/08/19 02:59:57;;;;;;;4.20;3.80;;;21.60;99.90;;;;;;5025014;28;20203;-72
2023/08/19 03:02:25;;;;;;;3.80;3.50;;;21.50;99.90;;;;;;5024522;28;20669;-71
2023/08/19 03:04:52;;;;;;;4.45;4.05;;;21.50;99.90;;;;;;5007850;28;20302;-74
2023/08/19 03:07:19;;;;;;;4.22;3.92;;;21.50;99.90;;;;;;5006465;28;20196;-71
2023/08/19 03:09:47;;;;;;;4.13;3.70;;;21.50;99.90;;;;;;5024144;28;20250;-71
2023/08/19 03:12:14;;;;;;;3.80;3.50;;;21.50;99.90;;;;;;5026336;28;20203;-71
2023/08/19 03:14:42;;;;;;;3.70;3.40;;;21.50;99.90;;;;;;5006930;28;20223;-72
2023/08/19 03:17:09;;;;;;;4.13;3.75;;;21.50;99.90;;;;;;5025573;28;20289;-71
2023/08/19 03:19:36;;;;;;;4.25;3.80;;;21.40;99.90;;;;;;5025030;28;20286;-72
2023/08/19 03:22:03;;;;;;;3.80;3.50;;;21.40;99.90;;;;;;5026674;28;20198;-71
2023/08/19 03:24:30;;;;;;;3.70;3.40;;;21.30;99.90;;;;;;5023963;28;20270;-73
2023/08/19 03:26:58;;;;;;;3.75;3.45;;;21.40;99.90;;;;;;5025095;28;20207;-71
2023/08/19 03:29:26;;;;;;;4.20;3.90;;;21.40;99.90;;;;;;5024192;28;20196;-71
2023/08/19 03:31:53;;;;;;;3.70;3.50;;;21.40;99.90;;;;;;5024705;28;20211;-71
2023/08/19 03:34:20;;;;;;;4.28;3.90;;;21.40;99.90;;;;;;5022480;28;20281;-72
2023/08/19 03:36:48;;;;;;;4.05;3.75;;;21.40;99.90;;;;;;5024188;28;20261;-71
2023/08/19 03:39:15;;;;;;;3.50;3.20;;;21.40;99.90;;;;;;5022644;28;20203;-71
2023/08/19 03:41:42;;;;;;;4.15;3.75;;;21.40;99.90;;;;;;5023016;28;20652;-72
2023/08/19 03:44:10;;;;;;;4.43;4.00;;;21.40;99.90;;;;;;5022255;28;20228;-72
2023/08/19 03:46:37;;;;;;;3.88;3.58;;;21.50;99.90;;;;;;5022217;28;20718;-73
2023/08/19 03:49:04;;;;;;;3.80;3.50;;;21.50;99.90;;;;;;5021883;28;20239;-72
2023/08/19 03:51:32;;;;;;;4.07;3.78;;;21.40;99.90;;;;;;5023123;28;20211;-71
2023/08/19 03:53:59;;;;;;;3.78;3.47;;;21.40;99.90;;;;;;5022417;28;20858;-71
2023/08/19 03:56:26;;;;;;;3.95;3.58;;;21.30;99.90;;;;;;5007462;28;20258;-71
2023/08/19 03:58:53;;;;;;;3.78;3.47;;;21.30;99.90;;;;;;5023600;28;20783;-72
2023/08/19 04:01:22;;;;;;;4.15;3.75;;;21.20;99.90;;;;;;5022915;28;20196;-71
2023/08/19 04:03:49;;;;;;;4.22;3.70;;;21.20;99.90;;;;;;5023951;28;20274;-72
2023/08/19 04:06:16;;;;;;;3.65;3.35;;;21.20;99.90;;;;;;5023562;28;20669;-72
2023/08/19 04:08:43;;;;;;;5.07;3.78;;;21.10;99.90;;;;;;5024410;28;20196;-72
2023/08/19 04:11:10;;;;;;;3.60;3.30;;;21.10;99.90;;;;;;5023899;28;20204;-71
2023/08/19 04:13:37;;;;;;;4.28;3.90;;;21.10;99.90;;;;;;5024413;28;20309;-72
2023/08/19 04:16:05;;;;;;;4.03;3.72;;;21.10;99.90;;;;;;5023054;28;20291;-71
2023/08/19 04:18:34;;;;;;;4.28;3.85;;;21.10;99.90;;;;;;5022690;28;20207;-71
2023/08/19 04:21:04;;;;;;;4.05;3.42;;;21.20;99.90;;;;;;5005324;28;20203;-72
2023/08/19 04:23:31;;;;;;;4.68;3.58;;;21.20;99.90;;;;;;5023873;28;20199;-71
2023/08/19 04:25:59;;;;;;;3.90;3.60;;;21.20;99.90;;;;;;5023012;28;20207;-71
2023/08/19 04:28:26;;;;;;;4.15;3.75;;;21.10;99.90;;;;;;5005251;28;20265;-71
2023/08/19 04:30:54;;;;;;;3.95;3.65;;;21.10;99.90;;;;;;5023823;28;20211;-72
2023/08/19 04:33:21;;;;;;;4.82;3.88;;;21.20;99.90;;;;;;5022822;28;20334;-71
2023/08/19 04:35:50;;;;;;;3.72;3.42;;;21.20;99.90;;;;;;5001953;28;20959;-70
2023/08/19 04:38:17;;;;;;;3.90;3.45;;;21.30;99.90;;;;;;5023151;28;20290;-72
2023/08/19 04:40:44;;;;;;;3.78;3.42;;;21.30;99.90;;;;;;5023899;28;20250;-72
2023/08/19 04:43:12;;;;;;;3.80;3.50;;;21.20;99.90;;;;;;5022123;28;20274;-70
2023/08/19 04:45:39;;;;;;;3.60;3.30;;;21.10;99.90;;;;;;5022604;28;20192;-71
2023/08/19 04:48:07;;;;;;;4.15;3.78;;;21.10;99.90;;;;;;5023529;28;20196;-71
2023/08/19 04:50:34;;;;;;;3.53;3.22;;;21.10;99.90;;;;;;5023452;28;20208;-72
2023/08/19 04:53:03;;;;;;;3.70;3.40;;;21.20;99.90;;;;;;5021185;28;20716;-71
2023/08/19 04:55:30;;;;;;;5.00;3.63;;;21.20;99.90;;;;;;5024145;28;20224;-71
2023/08/19 04:57:57;;;;;;;3.70;3.40;;;21.20;99.90;;;;;;5005665;28;20339;-71
2023/08/19 05:00:25;;;;;;;3.38;3.08;;;21.10;99.90;;;;;;4990235;28;20261;-71
2023/08/19 05:02:52;;;;;;;3.75;3.38;;;21.10;99.90;;;;;;5022576;28;20200;-71
2023/08/19 05:05:19;;;;;;;3.30;3.10;;;21.00;99.90;;;;;;5022614;28;20219;-72
2023/08/19 05:07:46;;;;;;;3.53;3.17;;;21.10;99.90;;;;;;5022806;28;20258;-71
2023/08/19 05:10:14;;;;;;;3.88;3.53;;;21.30;99.90;;;;;;5024375;28;20586;-72
2023/08/19 05:12:41;;;;;;;3.63;3.33;;;21.40;99.90;;;;;;5022367;28;20257;-72
2023/08/19 05:15:11;;;;;;;3.85;3.45;;;21.60;99.90;;;;;;5003798;28;20310;-71
2023/08/19 05:17:39;;;;;;;3.80;3.47;;;21.90;99.90;;;;;;5021457;28;20209;-71
2023/08/19 05:20:07;;;;;;;4.68;3.42;;;22.10;99.90;;;;;;5024705;28;20278;-71
2023/08/19 05:22:34;;;;;;;3.92;3.42;;;22.30;99.90;;;;;;5021861;28;20204;-70
2023/08/19 05:25:01;;;;;;;3.55;3.00;;;22.50;99.90;;;;;;5022416;28;20219;-71
2023/08/19 05:27:29;;;;;;;3.30;3.00;;;22.70;99.90;;;;;;5022896;28;20270;-71
2023/08/19 05:29:56;;;;;;;4.32;3.70;;;22.80;99.90;;;;;;5022896;28;20203;-72
2023/08/19 05:32:24;;;;;;;4.00;3.70;;;22.90;99.90;;;;;;5022153;28;20195;-71
2023/08/19 05:34:51;;;;;;;3.63;3.20;;;22.90;99.90;;;;;;5021556;28;20219;-71
2023/08/19 05:37:18;;;;;;;3.95;3.65;;;22.90;99.90;;;;;;5022201;28;20278;-73
2023/08/19 05:39:45;;;;;;;3.88;3.47;;;22.90;99.90;;;;;;5023601;28;20207;-71
2023/08/19 05:42:12;;;;;;;3.20;2.80;;;23.00;99.90;;;;;;5023239;28;20195;-73
2023/08/19 05:44:41;;;;;;;3.72;3.28;;;23.20;99.90;;;;;;5019117;28;20211;-70
2023/08/19 05:47:09;;;;;;;4.05;3.65;;;23.40;99.90;;;;;;5024601;28;20721;-70
2023/08/19 05:49:36;;;;;;;3.40;3.10;;;23.60;99.90;;;;;;5029934;28;20203;-70
2023/08/19 05:52:03;;;;;;;3.50;3.30;;;23.70;99.90;;;;;;5027323;28;20211;-71
2023/08/19 05:54:30;;;;;;;3.45;3.15;;;23.90;99.90;;;;;;5025237;28;20297;-72
2023/08/19 05:56:57;;;;;;;5.03;3.15;;;24.00;99.90;;;;;;5026968;28;20200;-71
2023/08/19 05:59:24;;;;;;;4.03;3.60;;;24.10;99.90;;;;;;5025370;28;20272;-71
2023/08/19 06:01:53;;;;;;;4.55;3.35;;;24.00;99.90;;;;;;5024499;28;20239;-72
2023/08/19 06:04:19;;;;;;;4.10;3.35;;;23.80;99.90;;;;;;5027363;28;20226;-70
2023/08/19 06:06:46;;;;;;;3.97;3.65;;;23.70;99.90;;;;;;5026014;28;20199;-70
2023/08/19 06:09:13;;;;;;;3.95;3.03;;;23.80;99.90;;;;;;5028290;28;20305;-72
2023/08/19 06:11:48;;;;;;;2.83;2.58;;;24.10;99.90;;;;;;5028422;28;20568;-70
2023/08/19 06:14:16;;;;;;;8.10;3.55;;;24.30;99.90;;;;;;5026049;28;20221;-71
2023/08/19 06:16:43;;;;;;;5.18;3.30;;;24.50;99.90;;;;;;5026054;28;20214;-71
2023/08/19 06:19:12;;;;;;;6.07;3.50;;;24.50;99.90;;;;;;5011712;28;20207;-71
2023/08/19 06:21:39;;;;;;;6.28;3.50;;;24.50;99.90;;;;;;5027334;28;20203;-72
2023/08/19 06:24:07;;;;;;;5.85;3.67;;;24.50;99.90;;;;;;5027646;28;20285;-72
2023/08/19 06:26:35;;;;;;;4.13;3.63;;;24.40;99.90;;;;;;5027157;28;20199;-71
2023/08/19 06:29:03;;;;;;;4.82;3.50;;;24.20;99.90;;;;;;5024791;28;20314;-71
2023/08/19 06:31:31;;;;;;;5.38;3.90;;;24.10;99.90;;;;;;5027388;28;20205;-71
2023/08/19 06:33:58;;;;;;;4.22;3.75;;;24.20;99.90;;;;;;5020206;28;20251;-75
2023/08/19 06:36:29;;;;;;;3.72;3.42;;;24.10;99.90;;;;;;5021856;28;20204;-73
2023/08/19 06:39:05;;;;;;;4.63;3.97;;;24.00;99.90;;;;;;5021361;28;20311;-73
2023/08/19 06:41:35;;;;;;;4.03;3.72;;;24.00;99.90;;;;;;5019146;28;20900;-73
2023/08/19 06:44:04;;;;;;;4.82;3.72;;;24.10;99.90;;;;;;5020369;28;20215;-74
2023/08/19 06:46:32;;;;;;;4.30;3.90;;;24.30;99.90;;;;;;5020289;28;20275;-73
2023/08/19 06:49:00;;;;;;;3.42;2.95;;;24.60;99.90;;;;;;5019586;28;20203;-71
2023/08/19 06:51:30;;;;;;;3.75;3.00;;;25.00;99.90;;;;;;5022739;28;20211;-74
2023/08/19 06:53:57;;;;;;;5.82;3.20;;;25.30;99.90;;;;;;5016729;28;20297;-74
2023/08/19 06:56:28;;;;;;;3.70;3.40;;;25.30;99.90;;;;;;5019525;28;20661;-73
2023/08/19 06:59:03;;;;;;;5.90;3.55;;;25.50;99.90;;;;;;5015227;28;20341;-72
2023/08/19 07:01:32;;;;;;;3.65;3.35;;;25.40;99.90;;;;;;5021408;28;20215;-71
2023/08/19 07:04:00;;;;;;;4.15;3.75;;;25.20;99.90;;;;;;5003987;28;20313;-72
2023/08/19 07:06:32;;;;;;;4.95;3.42;;;25.30;99.90;;;;;;5021009;28;20439;-71
2023/08/19 07:09:05;;;;;;;3.72;3.33;;;25.30;99.90;;;;;;5016604;28;20199;-75
2023/08/19 07:11:33;;;;;;;4.50;3.90;;;25.20;99.90;;;;;;5020285;28;20211;-72
2023/08/19 07:14:01;;;;;;;5.50;3.92;;;25.10;99.90;;;;;;5020391;28;20251;-71
2023/08/19 07:16:29;;;;;;;7.18;3.92;;;25.10;99.90;;;;;;5017011;28;20298;-72
2023/08/19 07:19:01;;;;;;;4.43;3.78;;;25.00;99.90;;;;;;5018931;28;20207;-72
2023/08/19 07:21:31;;;;;;;6.20;3.80;;;24.90;99.90;;;;;;5004255;28;20290;-73
2023/08/19 07:23:59;;;;;;;6.15;3.78;;;24.90;99.90;;;;;;5001569;28;20223;-72
2023/08/19 07:26:27;;;;;;;7.03;4.22;;;24.90;99.90;;;;;;5019576;28;20287;-71
2023/08/19 07:28:55;;;;;;;5.95;4.32;;;24.90;99.90;;;;;;5002318;28;20602;-73
2023/08/19 07:31:23;;;;;;;3.97;3.67;;;24.80;99.90;;;;;;5021860;28;20578;-72
2023/08/19 07:33:51;;;;;;;4.20;3.80;;;24.90;99.90;;;;;;5003493;28;20226;-74
2023/08/19 07:36:18;;;;;;;4.97;4.22;;;25.30;99.90;;;;;;5020357;28;20200;-71
2023/08/19 07:38:47;;;;;;;5.10;4.30;;;25.50;99.90;;;;;;5020468;28;20208;-71
2023/08/19 07:41:15;;;;;;;6.07;3.90;;;25.40;99.90;;;;;;5020458;28;20205;-71
2023/08/19 07:43:42;;;;;;;3.92;3.55;;;25.40;99.90;;;;;;5018152;28;21433;-70
2023/08/19 07:46:09;;;;;;;6.47;4.20;;;25.60;99.90;;;;;;5019147;28;20199;-72
2023/08/19 07:48:36;;;;;;;6.95;3.78;;;25.70;99.90;;;;;;5019949;28;20656;-73
2023/08/19 07:51:03;;;;;;;8.30;4.30;;;25.70;99.90;;;;;;5017963;28;20223;-73
2023/08/19 07:53:30;;;;;;;5.25;4.03;;;25.70;99.90;;;;;;5018048;28;20200;-71
2023/08/19 07:55:58;;;;;;;4.43;4.03;;;25.60;99.90;;;;;;5011730;28;20299;-70
2023/08/19 07:58:25;;;;;;;4.13;3.70;;;25.70;99.90;;;;;;5023962;28;20208;-74
2023/08/19 08:00:52;;;;;;;4.20;3.80;;;25.80;99.90;;;;;;5006078;28;20204;-71
2023/08/19 08:03:20;;;;;;;4.28;3.92;;;25.90;99.90;;;;;;5019753;28;20201;-73
2023/08/19 08:05:47;;;;;;;5.70;4.30;;;26.10;99.90;;;;;;5019963;28;20192;-72
2023/08/19 08:08:14;;;;;;;4.35;3.95;;;26.10;99.90;;;;;;5021454;28;20228;-71
2023/08/19 08:10:41;;;;;;;5.00;4.13;;;26.20;99.90;;;;;;5020728;28;20289;-73
2023/08/19 08:13:10;;;;;;;5.07;3.72;;;26.20;99.90;;;;;;5022340;28;20289;-71
2023/08/19 08:15:37;;;;;;;4.35;3.95;;;26.40;99.90;;;;;;4999475;28;20784;-72
2023/08/19 08:18:05;;;;;;;4.22;3.92;;;26.60;99.90;;;;;;5022310;28;20208;-73
2023/08/19 08:20:32;;;;;;;6.93;4.15;;;26.70;99.90;;;;;;5019160;28;21182;-74
2023/08/19 08:22:59;;;;;;;4.10;3.60;;;27.00;99.90;;;;;;5024301;28;20199;-74
2023/08/19 08:25:26;;;;;;;4.28;3.67;;;27.30;99.90;;;;;;5023787;28;20262;-73
2023/08/19 08:27:53;;;;;;;4.88;3.80;;;27.40;99.90;;;;;;5021144;28;20231;-71
2023/08/19 08:30:22;;;;;;;6.05;3.75;;;27.40;99.90;;;;;;5002545;28;20234;-72
2023/08/19 08:32:49;;;;;;;4.38;3.97;;;27.50;99.90;;;;;;5017402;28;20681;-71
2023/08/19 08:35:16;;;;;;;4.50;3.92;;;27.50;99.90;;;;;;5020294;28;20700;-73
2023/08/19 08:37:43;;;;;;;7.35;4.60;;;27.30;99.90;;;;;;5020612;28;20822;-71
2023/08/19 08:40:11;;;;;;;9.80;4.53;;;27.10;99.90;;;;;;5022097;28;20207;-71
2023/08/19 08:42:38;;;;;;;7.35;4.97;;;26.90;99.90;;;;;;5024102;28;20196;-75
2023/08/19 08:45:06;;;;;;;5.22;4.38;;;27.00;99.90;;;;;;5026734;28;20223;-72
2023/08/19 08:47:35;;;;;;;5.78;4.18;;;27.10;99.90;;;;;;5022432;28;20740;-72
2023/08/19 08:50:04;;;;;;;5.43;3.92;;;27.20;99.90;;;;;;5025002;28;20208;-71
2023/08/19 08:52:31;;;;;;;6.35;4.40;;;27.20;99.90;;;;;;5025923;28;20261;-71
2023/08/19 08:55:00;;;;;;;4.97;4.30;;;27.30;99.90;;;;;;5031495;28;20278;-71
2023/08/19 08:57:27;;;;;;;4.65;4.00;;;27.30;99.90;;;;;;5012891;28;20249;-73
2023/08/19 08:59:54;;;;;;;5.15;3.72;;;27.40;99.90;;;;;;5031235;28;20715;-69
2023/08/19 09:02:22;;;;;;;7.43;4.10;;;27.70;99.90;;;;;;5029337;28;20195;-72
2023/08/19 09:04:51;;;;;;;4.43;3.65;;;27.80;99.90;;;;;;5019322;28;20240;-72
2023/08/19 09:07:25;;;;;;;6.18;4.20;;;27.90;99.90;;;;;;5024278;28;20203;-73
2023/08/19 09:09:53;;;;;;;5.18;3.72;;;28.00;99.90;;;;;;5020394;28;20204;-74
2023/08/19 09:12:22;;;;;;;9.25;4.57;;;28.10;99.90;;;;;;5006494;28;20203;-71
2023/08/19 09:17:24;;;;;;;4.00;3.60;;;28.20;99.90;;;;;;5149427;22;20216;-75
2023/08/19 09:19:53;;;;;;;4.10;3.70;;;28.20;99.90;;;;;;5091600;28;20258;-72
2023/08/19 09:22:21;;;;;;;4.53;4.13;;;28.40;99.90;;;;;;5096007;28;20192;-72
2023/08/19 09:24:49;;;;;;;5.18;3.83;;;28.40;99.90;;;;;;5061717;28;20526;-71
2023/08/19 09:27:25;;;;;;;6.30;4.20;;;28.50;99.90;;;;;;5074309;28;20209;-72
2023/08/19 09:29:52;;;;;;;5.03;3.80;;;28.80;99.90;;;;;;5074105;28;20201;-72
2023/08/19 09:32:27;;;;;;;4.85;3.95;;;28.90;99.90;;;;;;5075793;28;20624;-75
2023/08/19 09:35:03;;;;;;;5.75;3.90;;;28.90;99.90;;;;;;5073207;28;20241;-76
2023/08/19 09:37:31;;;;;;;4.07;3.67;;;28.70;99.90;;;;;;5076021;28;20665;-71
2023/08/19 09:39:58;;;;;;;5.78;4.20;;;28.90;99.90;;;;;;5076399;28;20619;-74
2023/08/19 09:42:25;;;;;;;5.10;3.63;;;29.10;99.90;;;;;;5070627;28;20237;-70
2023/08/19 09:44:53;;;;;;;5.72;4.13;;;29.10;99.90;;;;;;5075300;28;20238;-72
2023/08/19 09:47:20;;;;;;;4.53;3.88;;;29.20;99.90;;;;;;5070533;28;20271;-73
2023/08/19 09:49:52;;;;;;;5.57;3.63;;;29.40;99.90;;;;;;5079163;28;20236;-70
2023/08/19 09:52:20;;;;;;;6.85;4.43;;;29.50;99.90;;;;;;5074161;28;20290;-71
2023/08/19 09:54:52;;;;;;;4.38;3.95;;;29.70;99.90;;;;;;5072633;28;20321;-72
2023/08/19 09:57:24;;;;;;;4.22;3.83;;;29.90;99.90;;;;;;5074191;28;20198;-71
2023/08/19 09:59:51;;;;;;;6.80;3.70;;;30.10;99.90;;;;;;5078365;28;20204;-74
2023/08/19 10:02:18;;;;;;;3.55;3.22;;;30.10;99.90;;;;;;5074814;28;20255;-71
2023/08/19 10:04:45;;;;;;;5.57;3.63;;;30.30;99.90;;;;;;5077605;28;20221;-75
2023/08/19 10:07:16;;;;;;;4.00;3.70;;;30.50;99.90;;;;;;5079119;28;20206;-73
2023/08/19 10:09:45;;;;;;;5.78;3.97;;;30.70;99.90;;;;;;5079102;28;20283;-74
2023/08/19 10:12:15;;;;;;;5.18;3.63;;;30.80;99.90;;;;;;5075482;28;20229;-71
2023/08/19 10:14:45;;;;;;;4.28;3.85;;;30.70;99.90;;;;;;5077368;28;20218;-73
2023/08/19 10:17:13;;;;;;;5.57;3.88;;;30.70;99.90;;;;;;5058279;28;20292;-74
2023/08/19 10:19:47;;;;;;;4.35;3.53;;;30.60;99.90;;;;;;5079366;28;20206;-74
2023/08/19 10:22:17;;;;;;;4.07;3.67;;;30.70;99.90;;;;;;5077258;28;20262;-72
2023/08/19 10:24:47;;;;;;;4.05;3.50;;;30.60;99.90;;;;;;5077218;28;20271;-72
2023/08/19 10:27:17;;;;;;;4.15;3.75;;;30.70;99.90;;;;;;5074067;28;20206;-72
2023/08/19 10:29:45;;;;;;;6.93;4.40;;;30.70;99.90;;;;;;5074984;28;22134;-72
2023/08/19 10:32:29;;;;;;;4.25;3.63;;;30.70;99.90;;;;;;5079679;28;20224;-73
2023/08/19 10:35:08;;;;;;;3.88;3.30;;;30.40;99.90;;;;;;5079125;28;20226;-71
2023/08/19 10:37:36;;;;;;;4.22;3.83;;;30.50;99.90;;;;;;5076867;28;20407;-71
2023/08/19 10:40:11;;;;;;;5.15;3.40;;;30.80;99.90;;;;;;5080474;28;20194;-71
2023/08/19 10:42:39;;;;;;;4.22;3.80;;;31.20;99.90;;;;;;5082625;28;20209;-71
2023/08/19 10:45:15;;;;;;;5.25;3.75;;;31.30;99.90;;;;;;5082024;28;20259;-73
2023/08/19 10:47:42;;;;;;;6.97;4.03;;;31.20;99.90;;;;;;5079254;28;20197;-74
2023/08/19 10:50:12;;;;;;;5.70;4.35;;;31.10;99.90;;;;;;5080389;28;20206;-73
2023/08/19 10:52:57;;;;;;;5.80;3.45;;;31.00;99.90;;;;;;5079245;28;20921;-73
2023/08/19 10:55:26;;;;;;;4.07;3.67;;;31.10;99.90;;;;;;5081153;28;20230;-71
2023/08/19 10:57:56;;;;;;;3.80;3.40;;;31.30;99.90;;;;;;5077593;28;20225;-75
2023/08/19 11:00:24;;;;;;;4.43;3.72;;;31.60;99.90;;;;;;5062095;28;20194;-71
2023/08/19 11:02:51;;;;;;;5.38;3.17;;;31.60;99.90;;;;;;5060441;28;20198;-72
2023/08/19 11:05:26;;;;;;;3.85;3.47;;;31.60;99.90;;;;;;5078711;28;20228;-71
2023/08/19 11:07:54;;;;;;;3.70;3.38;;;31.50;99.90;;;;;;5078406;28;20239;-72
2023/08/19 11:10:21;;;;;;;4.15;3.25;;;31.50;99.90;;;;;;5062507;28;20710;-73
2023/08/19 11:12:51;;;;;;;3.60;3.30;;;31.50;99.90;;;;;;5079704;28;20241;-72
2023/08/19 11:15:24;;;;;;;5.07;3.65;;;31.60;99.90;;;;;;5076095;28;20597;-74
2023/08/19 11:17:51;;;;;;;4.03;3.20;;;31.60;99.90;;;;;;5060722;28;20293;-72
2023/08/19 11:20:19;;;;;;;3.78;3.40;;;31.70;99.90;;;;;;5062430;28;20234;-73
2023/08/19 11:22:47;;;;;;;3.60;3.30;;;31.90;99.90;;;;;;5077283;28;20202;-72
2023/08/19 11:25:14;;;;;;;3.65;3.35;;;31.70;99.90;;;;;;5061457;28;20205;-72
2023/08/19 11:27:42;;;;;;;4.28;3.30;;;31.80;99.90;;;;;;5079367;28;20318;-72
2023/08/19 11:30:13;;;;;;;3.88;3.47;;;31.90;99.90;;;;;;5077003;28;20835;-75
2023/08/19 11:32:45;;;;;;;3.97;3.58;;;31.90;99.90;;;;;;5078364;28;20201;-71
2023/08/19 11:35:12;;;;;;;3.90;3.53;;;31.80;99.90;;;;;;5072476;28;20317;-72
2023/08/19 11:37:40;;;;;;;3.85;3.45;;;31.90;99.90;;;;;;5077551;28;20202;-73
2023/08/19 11:40:08;;;;;;;3.72;3.35;;;31.90;99.90;;;;;;5076830;28;20202;-72
2023/08/19 11:42:35;;;;;;;8.45;4.20;;;31.90;99.90;;;;;;5078833;28;20202;-73
2023/08/19 11:45:02;;;;;;;3.85;3.40;;;31.80;99.90;;;;;;5059299;28;20214;-72
2023/08/19 11:47:33;;;;;;;4.32;3.70;;;31.80;99.90;;;;;;5079882;28;20266;-74
2023/08/19 11:50:03;;;;;;;3.65;3.13;;;31.70;99.90;;;;;;5080544;28;20202;-72
2023/08/19 11:52:32;;;;;;;4.63;3.60;;;31.60;99.90;;;;;;5069596;28;20210;-75
2023/08/19 11:55:00;;;;;;;5.75;3.45;;;31.70;99.90;;;;;;5067521;28;20282;-72
2023/08/19 11:57:32;;;;;;;5.97;4.25;;;31.80;99.90;;;;;;5070068;28;20225;-72
2023/08/19 12:00:00;;;;;;;4.93;4.07;;;31.70;99.90;;;;;;5069557;28;20232;-71
2023/08/19 12:02:27;;;;;;;5.00;3.72;;;31.50;99.90;;;;;;5070141;28;20679;-71
2023/08/19 12:04:56;;;;;;;5.20;3.50;;;31.50;99.90;;;;;;5074225;28;20786;-72
2023/08/19 12:07:27;;;;;;;4.38;3.40;;;31.60;99.90;;;;;;5074675;28;20202;-71
2023/08/19 12:09:58;;;;;;;3.30;3.00;;;31.70;99.90;;;;;;5073699;28;20197;-72
2023/08/19 12:12:25;;;;;;;5.05;3.63;;;31.70;99.90;;;;;;5055083;28;20229;-72
2023/08/19 12:14:53;;;;;;;4.05;3.33;;;31.60;99.90;;;;;;5058916;28;20225;-72
2023/08/19 12:17:20;;;;;;;3.58;3.28;;;31.70;99.90;;;;;;5074874;28;20251;-72
2023/08/19 12:19:47;;;;;;;4.60;3.40;;;31.90;99.90;;;;;;5073675;28;20298;-75
2023/08/19 12:22:15;;;;;;;5.78;3.60;;;32.30;99.90;;;;;;5060446;28;20197;-73
2023/08/19 12:24:42;;;;;;;3.40;3.10;;;32.50;99.90;;;;;;5077924;28;20306;-73
2023/08/19 12:27:09;;;;;;;5.38;3.75;;;32.60;99.90;;;;;;5076001;28;20326;-73
2023/08/19 12:29:36;;;;;;;3.63;3.33;;;32.50;99.90;;;;;;5074877;28;20202;-74
2023/08/19 12:32:04;;;;;;;4.47;3.97;;;32.50;99.90;;;;;;5076700;28;20201;-74
2023/08/19 12:34:31;;;;;;;4.05;3.65;;;32.30;99.90;;;;;;5074943;28;20267;-72
2023/08/19 12:36:58;;;;;;;3.92;3.53;;;32.30;99.90;;;;;;5075378;28;20221;-71
2023/08/19 12:39:26;;;;;;;3.85;3.40;;;32.30;99.90;;;;;;5073856;28;20251;-73
2023/08/19 12:41:53;;;;;;;4.22;3.47;;;32.30;99.90;;;;;;5072040;28;20260;-72
2023/08/19 12:44:20;;;;;;;5.45;3.38;;;32.30;99.90;;;;;;5079004;28;20222;-74
2023/08/19 12:46:49;;;;;;;4.20;3.67;;;32.20;99.90;;;;;;5057814;28;20193;-71
2023/08/19 12:49:16;;;;;;;3.15;2.85;;;32.20;99.90;;;;;;5076100;28;20193;-73
2023/08/19 12:51:43;;;;;;;4.38;3.33;;;32.20;99.90;;;;;;5057096;28;20202;-73
2023/08/19 12:54:10;;;;;;;3.53;2.95;;;32.40;99.90;;;;;;5074983;28;20282;-73
2023/08/19 12:56:38;;;;;;;3.20;2.90;;;32.50;99.90;;;;;;5075018;28;20824;-72